Yakima — WCD7863 — position and weather

sailwx.info

Track history (hours):
 
Tides and Currents Weather Stations Pressure Air Temp Water Temp Dewpoint Dewpoint Depression Visibility Wind Speed Wind Dir Waves Ship Positions

Yakima

Owner: WASHINGTON, STATE OF; Dept. of Transportation, OLYMPIA, WA. More information available from US FCC via Universal Licensing System and Coast Guard Vessel Documentation Center.

Last reported at 2018-May-25 01:00 UTC. Time now 2018-May-25 01:23 UTC.
Position N 48°32' W 122°45'.

Length 117 m; draft 5.6 m.

Type: Passenger vessel. MMSI: 366772750.

Date/timePositionNaut miles runAvg speedWind from/ knotsBaromVisibWave heightAir tempDewpointWater temp
2018-May-25 01:00N 48°32' W 122°45'3 5.2
2018-May-25 00:26N 48°30' W 122°41'510.9
2018-May-25 00:00N 48°32' W 122°48'713.1
2018-May-24 23:30N 48°35' W 122°56'1 2.1
2018-May-24 23:00N 48°35' W 122°54'612.5
2018-May-24 22:30N 48°32' W 122°46'4 5.2
2018-May-24 21:44N 48°30' W 122°41'2 9.6
2018-May-24 21:30N 48°32' W 122°44'612.1
2018-May-24 21:01N 48°34' W 122°52'4 6.7
2018-May-24 20:28N 48°36' W 122°57'1 1.9
2018-May-24 19:59N 48°35' W 122°56'1 2.7
2018-May-24 19:30N 48°35' W 122°54'3 6.1
2018-May-24 19:00N 48°35' W 122°49'612.1
2018-May-24 18:30N 48°32' W 122°42'1 2.0
2018-May-24 17:51N 48°30' W 122°41'3 9.7
2018-May-24 17:30N 48°32' W 122°45'611.4
2018-May-24 17:00N 48°34' W 122°53'2 4.1
2018-May-24 16:31N 48°35' W 122°56'1 1.8
2018-May-24 16:00N 48°36' W 122°57'510.6
2018-May-24 15:30N 48°33' W 122°50'612.5
2018-May-24 15:00N 48°31' W 122°41'1 1.2
2018-May-24 14:30N 48°31' W 122°40'612.2
2018-May-24 14:00N 48°32' W 122°50'3 6.2
2018-May-24 13:30N 48°34' W 122°53'9 2.0
2018-May-24 08:59N 48°30' W 122°41'0 0.0
2018-May-24 08:29N 48°30' W 122°41'0 0.0
2018-May-24 07:59N 48°30' W 122°41'0 0.0
2018-May-24 07:28N 48°30' W 122°41'0 0.0
2018-May-24 06:53N 48°30' W 122°41'410.5
2018-May-24 06:30N 48°32' W 122°46'611.4
2018-May-24 06:01N 48°34' W 122°54'5 9.7
2018-May-24 05:30N 48°32' W 123°01'4 7.8
2018-May-24 05:01N 48°33' W 122°55'2 4.8
2018-May-24 04:30N 48°34' W 122°52'712.6
2018-May-24 03:57N 48°32' W 122°42'1 3.2
2018-May-24 03:30N 48°30' W 122°41'5 9.3
2018-May-24 02:57N 48°32' W 122°48'4 7.9
2018-May-24 02:26N 48°34' W 122°53'0 0.8
2018-May-24 02:00N 48°35' W 122°53'611.0
2018-May-24 01:30N 48°32' W 123°01'1 1.4
2018-May-24 01:00N 48°33' W 123°00'510.5
2018-May-24 00:31N 48°34' W 122°53'3 6.8
2018-May-24 00:00N 48°32' W 122°49'6 4.4
2018-May-23 22:41N 48°30' W 122°41'0 0.0
2018-May-23 22:25N 48°30' W 122°41'0 0.0
2018-May-23 21:59N 48°30' W 122°41'0 0.2
2018-May-23 21:30N 48°31' W 122°41'611.1
2018-May-23 21:00N 48°32' W 122°49'611.3
2018-May-23 20:30N 48°35' W 122°56'1 1.5
2018-May-23 19:54N 48°36' W 122°57'2 4.3
2018-May-23 19:30N 48°35' W 122°54'4 7.4
2018-May-23 19:00N 48°33' W 122°50'612.8
2018-May-23 18:30N 48°31' W 122°41'0 0.9
2018-May-23 17:58N 48°31' W 122°40'510.9
2018-May-23 17:30N 48°32' W 122°48'4 8.5
2018-May-23 17:01N 48°34' W 122°53'3 5.0
2018-May-23 16:29N 48°36' W 122°56'0 0.6
2018-May-23 15:58N 48°36' W 122°57'510.8
2018-May-23 15:30N 48°33' W 122°50'612.0
2018-May-23 15:01N 48°31' W 122°42'1 2.1
2018-May-23 14:30N 48°31' W 122°41'611.4
2018-May-23 14:00N 48°32' W 122°49'4 7.3
2018-May-23 13:31N 48°34' W 122°53'5 9.3
2018-May-23 13:00N 48°33' W 122°60'1 1.7
2018-May-23 12:30N 48°32' W 123°01'611.3
2018-May-23 12:00N 48°35' W 122°53'612.1
2018-May-23 11:30N 48°31' W 122°45'3 6.1
2018-May-23 11:00N 48°30' W 122°41'0 0.0
2018-May-23 10:30N 48°30' W 122°41'0 0.0
2018-May-23 09:59N 48°30' W 122°41'0 0.0
2018-May-23 09:30N 48°30' W 122°41'0 0.0
2018-May-23 09:00N 48°30' W 122°41'0 0.0
2018-May-23 08:30N 48°30' W 122°41'0 0.0
2018-May-23 07:59N 48°30' W 122°41'0 0.0
2018-May-23 07:30N 48°30' W 122°41'0 0.0
2018-May-23 07:01N 48°30' W 122°41'0 0.0
2018-May-23 06:30N 48°30' W 122°41'4 8.6
2018-May-23 06:00N 48°32' W 122°47'611.0
2018-May-23 05:30N 48°34' W 122°54'5 9.3
2018-May-23 05:00N 48°32' W 123°01'4 8.4
2018-May-23 04:30N 48°34' W 122°55'3 6.1
2018-May-23 04:00N 48°33' W 122°50'712.9
2018-May-23 03:30N 48°31' W 122°41'1 1.0
2018-May-23 02:58N 48°30' W 122°41'510.7
2018-May-23 02:30N 48°32' W 122°48'4 8.4
2018-May-23 02:00N 48°34' W 122°53'5 9.7
2018-May-23 01:30N 48°33' W 122°60'0 0.9
2018-May-23 01:00N 48°33' W 123°01'511.1
2018-May-23 00:30N 48°34' W 122°53'4 8.0
2018-May-23 00:00N 48°32' W 122°48'510.6
2018-May-22 23:30N 48°30' W 122°41'0 0.3
2018-May-22 22:58N 48°30' W 122°40'0 0.2
2018-May-22 22:12N 48°30' W 122°41'0 0.2
2018-May-22 21:59N 48°30' W 122°41'1 2.3
2018-May-22 21:30N 48°31' W 122°42'612.7
2018-May-22 21:01N 48°33' W 122°51'5 9.0
2018-May-22 20:30N 48°36' W 122°56'0 0.6
2018-May-22 20:00N 48°36' W 122°57'3 5.9
2018-May-22 19:30N 48°34' W 122°53'4 8.2
2018-May-22 19:00N 48°32' W 122°48'5 7.8
2018-May-22 18:21N 48°30' W 122°41'0 0.0
2018-May-22 18:00N 48°30' W 122°41'510.8
2018-May-22 17:30N 48°32' W 122°48'4 7.9
2018-May-22 17:00N 48°34' W 122°53'3 5.3
2018-May-22 16:30N 48°36' W 122°57'0 0.3
2018-May-22 16:00N 48°36' W 122°57'612.6
2018-May-22 15:30N 48°32' W 122°49'611.5
2018-May-22 15:00N 48°31' W 122°41'1 1.1
2018-May-22 14:30N 48°31' W 122°40'612.8
2018-May-22 14:00N 48°32' W 122°50'3 6.0
2018-May-22 13:30N 48°34' W 122°53'5 9.5
2018-May-22 13:00N 48°33' W 122°60'1 1.2
2018-May-22 12:31N 48°33' W 123°01'611.5
2018-May-22 12:00N 48°34' W 122°52'612.1
2018-May-22 11:30N 48°32' W 122°44'3 4.4
2018-May-22 10:55N 48°30' W 122°41'0 0.0
2018-May-22 10:30N 48°30' W 122°41'0 0.0
2018-May-22 10:00N 48°30' W 122°41'0 0.0
2018-May-22 09:30N 48°30' W 122°41'0 0.0
2018-May-22 09:00N 48°30' W 122°41'0 0.0
2018-May-22 08:30N 48°30' W 122°41'0 0.0
2018-May-22 07:59N 48°30' W 122°41'0 0.0
2018-May-22 07:30N 48°30' W 122°41'0 0.0
2018-May-22 07:00N 48°30' W 122°41'0 0.0
2018-May-22 06:29N 48°30' W 122°41'4 7.9
2018-May-22 06:00N 48°32' W 122°46'611.8
2018-May-22 05:30N 48°34' W 122°54'5 9.7
2018-May-22 05:00N 48°32' W 123°01'4 7.9
2018-May-22 04:30N 48°33' W 122°55'4 7.3
2018-May-22 04:00N 48°33' W 122°50'612.0
2018-May-22 03:30N 48°31' W 122°41'0 1.0
2018-May-22 03:00N 48°31' W 122°41'611.9
2018-May-22 02:30N 48°32' W 122°49'4 7.6
2018-May-22 02:00N 48°35' W 122°53'510.8
2018-May-22 01:30N 48°32' W 123°01'1 2.2
2018-May-22 01:01N 48°33' W 122°59'4 8.9
2018-May-22 00:31N 48°34' W 122°53'5 9.3
2018-May-21 23:59N 48°32' W 122°47'4 8.6
2018-May-21 23:29N 48°30' W 122°41'0 0.3
2018-May-21 23:00N 48°31' W 122°40'0 0.2
2018-May-21 22:06N 48°30' W 122°41'0 0.1
2018-May-21 21:59N 48°30' W 122°41'1 1.2
2018-May-21 21:30N 48°31' W 122°40'612.7
2018-May-21 21:01N 48°32' W 122°50'510.1
2018-May-21 20:30N 48°35' W 122°56'1 1.7
2018-May-21 19:59N 48°36' W 122°57'0 1.0
2018-May-21 19:30N 48°35' W 122°56'3 5.1
2018-May-21 19:00N 48°34' W 122°53'611.8
2018-May-21 18:30N 48°32' W 122°45'3 3.8
2018-May-21 17:42N 48°30' W 122°41'1 7.3
2018-May-21 17:30N 48°31' W 122°42'612.6
2018-May-21 17:00N 48°34' W 122°51'3 6.9
2018-May-21 16:30N 48°35' W 122°56'1 1.4
2018-May-21 15:56N 48°36' W 122°57'4 9.4
2018-May-21 15:30N 48°34' W 122°51'612.4
2018-May-21 15:00N 48°31' W 122°42'1 3.1
2018-May-21 14:30N 48°30' W 122°41'5 9.7
2018-May-21 14:00N 48°32' W 122°48'4 8.6
2018-May-21 13:30N 48°34' W 122°53'4 8.2
2018-May-21 13:00N 48°32' W 122°58'2 3.2
2018-May-21 12:30N 48°32' W 123°01'611.1
2018-May-21 12:01N 48°35' W 122°53'612.2
2018-May-21 11:30N 48°32' W 122°45'3 4.9
2018-May-21 10:52N 48°30' W 122°41'0 0.0
2018-May-21 10:00N 48°30' W 122°41'0 0.0
2018-May-21 09:25N 48°30' W 122°41'0 0.0
2018-May-21 09:00N 48°30' W 122°41'0 0.0
2018-May-21 08:30N 48°30' W 122°41'0 0.0
2018-May-21 07:59N 48°30' W 122°41'0 0.0
2018-May-21 07:30N 48°30' W 122°41'4 8.4
2018-May-21 07:00N 48°32' W 122°47'511.2
2018-May-21 06:30N 48°34' W 122°54'5 9.2
2018-May-21 06:00N 48°32' W 123°01'4 8.2
2018-May-21 05:30N 48°33' W 122°55'3 5.6
2018-May-21 05:01N 48°33' W 122°51'612.6
2018-May-21 04:30N 48°31' W 122°42'1 2.0
2018-May-21 04:00N 48°31' W 122°40'612.6
2018-May-21 03:30N 48°32' W 122°50'3 6.4
2018-May-21 03:00N 48°34' W 122°53'611.2
2018-May-21 02:30N 48°32' W 123°01'0 0.0
2018-May-21 02:00N 48°32' W 123°01'611.2
2018-May-21 01:30N 48°34' W 122°53'4 7.7
2018-May-21 01:01N 48°32' W 122°49'5 9.9
2018-May-21 00:28N 48°30' W 122°41'0 0.8
2018-May-21 00:00N 48°31' W 122°40'612.8
2018-May-20 23:30N 48°32' W 122°50'6 9.7
2018-May-20 22:54N 48°36' W 122°57'0 0.1
2018-May-20 22:30N 48°36' W 122°57'611.8
2018-May-20 22:00N 48°32' W 122°49'612.1
2018-May-20 21:30N 48°31' W 122°40'1 1.4
2018-May-20 21:00N 48°31' W 122°41'612.7
2018-May-20 20:30N 48°33' W 122°50'4 9.0
2018-May-20 20:01N 48°35' W 122°56'1 1.4
2018-May-20 19:30N 48°36' W 122°57'2 3.7
2018-May-20 19:00N 48°35' W 122°54'4 7.6
2018-May-20 18:30N 48°32' W 122°50'612.2
2018-May-20 17:58N 48°30' W 122°41'0 0.2
2018-May-20 17:30N 48°31' W 122°41'611.1
2018-May-20 17:00N 48°32' W 122°49'4 7.7
2018-May-20 16:30N 48°34' W 122°53'3 5.6
2018-May-20 16:00N 48°36' W 122°57'2 4.0
2018-May-20 15:30N 48°35' W 122°54'612.8
2018-May-20 15:01N 48°32' W 122°46'4 6.3
2018-May-20 14:27N 48°30' W 122°41'4 9.8
2018-May-20 14:00N 48°32' W 122°47'5 9.5
2018-May-20 13:30N 48°34' W 122°53'4 8.0
2018-May-20 13:00N 48°32' W 122°59'1 2.6
2018-May-20 12:31N 48°33' W 123°00'611.9
2018-May-20 12:00N 48°34' W 122°52'612.5
2018-May-20 11:30N 48°31' W 122°43'2 4.0
2018-May-20 11:01N 48°30' W 122°41'0 0.0
2018-May-20 10:30N 48°30' W 122°41'0 0.0
2018-May-20 09:03N 48°30' W 122°41'0 0.0
2018-May-20 08:57N 48°30' W 122°41'0 0.0
2018-May-20 07:12N 48°30' W 122°41'0 0.9
2018-May-20 07:00N 48°31' W 122°41'612.2
2018-May-20 06:29N 48°32' W 122°50'4 9.2
2018-May-20 06:01N 48°33' W 122°56'3 5.7
2018-May-20 05:30N 48°32' W 123°01'510.9
2018-May-20 05:00N 48°34' W 122°53'4 7.7
2018-May-20 04:30N 48°32' W 122°49'510.9
2018-May-20 04:01N 48°30' W 122°41'3 5.5
2018-May-20 03:30N 48°32' W 122°44'611.6
2018-May-20 03:00N 48°34' W 122°52'2 4.9
2018-May-20 02:30N 48°33' W 122°56'4 7.2
2018-May-20 02:00N 48°32' W 123°01'2 4.4
2018-May-20 01:30N 48°33' W 122°58'4 7.2
2018-May-20 01:01N 48°34' W 122°53'612.2
2018-May-20 00:30N 48°32' W 122°44'3 4.3
2018-May-19 23:51N 48°30' W 122°41'410.1
2018-May-19 23:30N 48°31' W 122°46'612.6
2018-May-19 23:00N 48°35' W 122°53'2 3.9
2018-May-19 22:30N 48°36' W 122°56'613.0
2018-May-19 22:00N 48°32' W 122°48'510.4
2018-May-19 21:30N 48°30' W 122°41'1 1.9
2018-May-19 21:00N 48°31' W 122°41'713.2
2018-May-19 20:30N 48°33' W 122°51'5 9.0
2018-May-19 20:00N 48°36' W 122°56'0 0.7
2018-May-19 19:30N 48°36' W 122°57'3 5.8
2018-May-19 19:00N 48°34' W 122°53'510.2
2018-May-19 18:30N 48°32' W 122°46'4 5.3
2018-May-19 17:45N 48°30' W 122°41'2 7.3
2018-May-19 17:30N 48°31' W 122°43'612.8
2018-May-19 17:00N 48°34' W 122°52'3 6.0
2018-May-19 16:30N 48°35' W 122°56'1 1.8
2018-May-19 16:00N 48°36' W 122°57'3 6.4
2018-May-19 15:30N 48°35' W 122°52'612.2
2018-May-19 15:00N 48°32' W 122°44'3 4.4
2018-May-19 14:26N 48°30' W 122°41'410.5
2018-May-19 14:00N 48°32' W 122°47'5 9.3
2018-May-19 13:30N 48°34' W 122°53'4 8.2
2018-May-19 13:00N 48°32' W 122°58'1 3.0
2018-May-19 12:30N 48°32' W 123°01'611.7
2018-May-19 12:01N 48°35' W 122°53'612.8
2018-May-19 11:30N 48°31' W 122°44'2 4.5
2018-May-19 10:58N 48°30' W 122°41'0 0.0
2018-May-19 10:30N 48°30' W 122°41'0 0.0
2018-May-19 10:00N 48°30' W 122°41'0 0.0
2018-May-19 09:30N 48°30' W 122°41'0 0.0
2018-May-19 09:00N 48°30' W 122°41'0 0.0
2018-May-19 08:31N 48°30' W 122°41'0 0.5
2018-May-19 08:00N 48°31' W 122°40'612.3
2018-May-19 07:30N 48°32' W 122°49'5 9.2
2018-May-19 07:00N 48°33' W 122°56'3 5.9
2018-May-19 06:31N 48°32' W 123°01'510.7
2018-May-19 06:01N 48°34' W 122°54'3 5.3
2018-May-19 05:30N 48°33' W 122°50'713.1
2018-May-19 05:00N 48°31' W 122°41'0 0.9
2018-May-19 04:29N 48°30' W 122°41'510.1
2018-May-19 04:00N 48°32' W 122°48'4 8.6
2018-May-19 03:31N 48°34' W 122°53'510.4
2018-May-19 03:00N 48°33' W 123°00'0 0.9
2018-May-19 02:30N 48°32' W 123°01'611.4
2018-May-19 02:01N 48°34' W 122°53'3 5.8
2018-May-19 01:31N 48°32' W 122°50'612.2
2018-May-19 01:00N 48°31' W 122°40'0 0.2
2018-May-19 00:29N 48°31' W 122°40'612.2
2018-May-19 00:00N 48°32' W 122°49'612.2
2018-May-18 23:30N 48°36' W 122°56'0 0.6
2018-May-18 23:00N 48°36' W 122°57'612.7
2018-May-18 22:30N 48°32' W 122°49'611.2
2018-May-18 22:00N 48°30' W 122°41'0 0.6
2018-May-18 21:31N 48°31' W 122°40'612.2
2018-May-18 21:00N 48°32' W 122°49'510.1
2018-May-18 20:30N 48°35' W 122°56'1 1.8
2018-May-18 20:00N 48°36' W 122°57'0 0.4
2018-May-18 19:30N 48°36' W 122°56'3 6.7
2018-May-18 19:01N 48°34' W 122°52'611.3
2018-May-18 18:30N 48°31' W 122°44'3 4.9
2018-May-18 17:58N 48°30' W 122°41'2 4.0
2018-May-18 17:30N 48°31' W 122°43'613.0
2018-May-18 17:00N 48°34' W 122°52'3 5.5
2018-May-18 16:30N 48°35' W 122°56'1 1.6
2018-May-18 15:58N 48°36' W 122°57'4 7.8
2018-May-18 15:30N 48°34' W 122°52'611.9
2018-May-18 15:00N 48°32' W 122°44'2 3.9
2018-May-18 14:26N 48°30' W 122°41'511.0
2018-May-18 14:00N 48°32' W 122°47'5 9.0
2018-May-18 13:30N 48°34' W 122°53'4 8.6
2018-May-18 13:00N 48°32' W 122°59'1 2.4
2018-May-18 12:31N 48°32' W 123°01'611.8
2018-May-18 12:00N 48°35' W 122°52'612.6
2018-May-18 11:30N 48°31' W 122°44'3 5.0
2018-May-18 11:00N 48°30' W 122°41'0 0.1
2018-May-18 10:28N 48°30' W 122°41'0 0.0
2018-May-18 10:00N 48°30' W 122°41'0 0.0
2018-May-18 09:30N 48°30' W 122°41'0 0.0
2018-May-18 09:00N 48°30' W 122°41'0 0.0
2018-May-18 08:30N 48°30' W 122°41'0 0.0
2018-May-18 07:57N 48°30' W 122°41'0 0.9
2018-May-18 07:30N 48°31' W 122°40'612.7
2018-May-18 07:00N 48°32' W 122°50'4 9.0
2018-May-18 06:30N 48°32' W 122°56'3 5.5
2018-May-18 06:00N 48°32' W 123°01'611.1
2018-May-18 05:30N 48°34' W 122°53'3 6.6
2018-May-18 05:00N 48°32' W 122°49'6 6.9
2018-May-18 04:09N 48°30' W 122°41'1 8.4
2018-May-18 04:00N 48°31' W 122°42'612.9
2018-May-18 03:30N 48°33' W 122°51'3 5.2
2018-May-18 03:00N 48°33' W 122°55'4 8.2
2018-May-18 02:30N 48°32' W 123°01'3 5.8
2018-May-18 02:00N 48°33' W 122°57'3 6.1
2018-May-18 01:30N 48°34' W 122°53'612.3
2018-May-18 01:00N 48°32' W 122°44'3 4.2
2018-May-18 00:20N 48°30' W 122°41'410.5
2018-May-18 00:00N 48°31' W 122°46'510.8
2018-May-17 23:31N 48°34' W 122°52'3 6.1
2018-May-17 22:59N 48°36' W 122°57'612.9
2018-May-17 22:30N 48°32' W 122°49'611.9
2018-May-17 22:01N 48°30' W 122°41'0 0.1
2018-May-17 21:30N 48°30' W 122°41'510.6
2018-May-17 21:00N 48°32' W 122°48'612.1
2018-May-17 20:30N 48°35' W 122°56'1 1.6
2018-May-17 19:59N 48°36' W 122°57'1 1.7
2018-May-17 19:30N 48°35' W 122°55'3 5.4
2018-May-17 19:00N 48°34' W 122°52'510.8
2018-May-17 18:30N 48°31' W 122°45'3 5.8
2018-May-17 18:00N 48°30' W 122°41'2 3.2
2018-May-17 17:30N 48°31' W 122°43'713.3
2018-May-17 17:00N 48°34' W 122°52'3 5.9
2018-May-17 16:30N 48°35' W 122°56'1 1.5
2018-May-17 15:59N 48°36' W 122°57'3 6.9
2018-May-17 15:30N 48°34' W 122°52'612.0
2018-May-17 15:00N 48°31' W 122°44'3 4.7
2018-May-17 14:28N 48°30' W 122°41'511.0
2018-May-17 14:00N 48°32' W 122°48'4 8.4
2018-May-17 13:31N 48°34' W 122°53'4 7.7
2018-May-17 13:00N 48°32' W 122°58'2 3.4
2018-May-17 12:30N 48°32' W 123°01'611.8
2018-May-17 12:00N 48°34' W 122°52'612.5
2018-May-17 11:31N 48°31' W 122°44'2 0.8
2018-May-17 08:45N 48°30' W 122°41'0 0.0
2018-May-17 08:15N 48°30' W 122°41'0 0.0
2018-May-17 07:53N 48°30' W 122°41'0 0.0
2018-May-17 06:32N 48°30' W 122°41'0 0.2
2018-May-17 06:30N 48°30' W 122°41'4 8.6
2018-May-17 06:00N 48°32' W 122°47'611.2
2018-May-17 05:30N 48°34' W 122°55'4 8.2
2018-May-17 04:59N 48°32' W 123°01'4 9.1
2018-May-17 04:30N 48°34' W 122°55'3 5.1
2018-May-17 04:01N 48°33' W 122°51'612.5
2018-May-17 03:30N 48°31' W 122°42'1 1.9
2018-May-17 02:57N 48°30' W 122°41'511.2
2018-May-17 02:30N 48°32' W 122°48'4 8.3
2018-May-17 02:00N 48°35' W 122°53'511.0
2018-May-17 01:31N 48°33' W 123°00'0 0.6
2018-May-17 01:00N 48°32' W 123°01'611.2
2018-May-17 00:30N 48°34' W 122°53'3 6.6
2018-May-17 00:00N 48°32' W 122°49'6 2.9
2018-May-16 21:59N 48°30' W 122°41'0 0.2
2018-May-16 21:30N 48°31' W 122°41'611.0
2018-May-16 21:00N 48°32' W 122°49'611.7
2018-May-16 20:30N 48°35' W 122°56'1 1.2
2018-May-16 19:45N 48°36' W 122°57'0 0.2
2018-May-16 19:30N 48°36' W 122°57'3 5.9
2018-May-16 19:00N 48°34' W 122°53'611.2
2018-May-16 18:30N 48°31' W 122°45'3 6.8
2018-May-16 18:00N 48°30' W 122°41'1 2.4
2018-May-16 17:30N 48°31' W 122°42'612.6
2018-May-16 17:00N 48°33' W 122°51'4 7.6
2018-May-16 16:30N 48°35' W 122°55'1 1.7
2018-May-16 15:52N 48°36' W 122°57'3 9.8
2018-May-16 15:30N 48°34' W 122°52'612.0
2018-May-16 15:00N 48°32' W 122°44'2 4.4
2018-May-16 14:27N 48°30' W 122°41'4 9.8
2018-May-16 14:00N 48°32' W 122°47'5 9.4
2018-May-16 13:30N 48°34' W 122°53'4 8.3
2018-May-16 13:00N 48°32' W 122°59'1 2.9
2018-May-16 12:30N 48°32' W 123°01'611.7
2018-May-16 12:01N 48°34' W 122°53'712.7
2018-May-16 11:30N 48°32' W 122°44'2 5.1
2018-May-16 11:01N 48°30' W 122°41'0 0.0
2018-May-16 10:30N 48°30' W 122°41'0 0.0
2018-May-16 10:00N 48°30' W 122°41'0 0.0
2018-May-16 09:30N 48°30' W 122°41'0 0.0
2018-May-16 09:00N 48°30' W 122°41'0 0.0
2018-May-16 08:30N 48°30' W 122°41'0 0.0
2018-May-16 08:00N 48°30' W 122°41'0 0.0
2018-May-16 07:30N 48°30' W 122°41'0 0.0
2018-May-16 07:00N 48°30' W 122°41'0 0.0
2018-May-16 06:30N 48°30' W 122°41'3 6.9
2018-May-16 06:00N 48°32' W 122°45'612.3
2018-May-16 05:30N 48°34' W 122°54'510.2
2018-May-16 05:00N 48°32' W 123°01'3 6.8
2018-May-16 04:30N 48°33' W 122°56'3 6.8
2018-May-16 04:00N 48°33' W 122°51'612.7
2018-May-16 03:30N 48°31' W 122°42'1 1.0
2018-May-16 03:00N 48°31' W 122°41'612.7
2018-May-16 02:30N 48°33' W 122°50'3 5.0
2018-May-16 02:00N 48°35' W 122°53'5 9.7
2018-May-16 01:30N 48°33' W 122°60'1 1.9
2018-May-16 01:00N 48°32' W 123°01'611.4
2018-May-16 00:30N 48°34' W 122°53'4 7.4
2018-May-16 00:00N 48°32' W 122°49'611.2
2018-May-15 23:30N 48°30' W 122°41'0 0.2
2018-May-15 23:00N 48°31' W 122°41'0 0.2
2018-May-15 22:30N 48°30' W 122°41'0 0.0
2018-May-15 22:00N 48°30' W 122°41'0 0.1
2018-May-15 21:30N 48°30' W 122°41'2 4.8
2018-May-15 21:00N 48°32' W 122°44'611.9
2018-May-15 20:31N 48°34' W 122°52'4 6.8
2018-May-15 19:58N 48°36' W 122°57'0 0.5
2018-May-15 19:30N 48°36' W 122°56'4 7.2
2018-May-15 19:00N 48°34' W 122°52'611.7
2018-May-15 18:31N 48°32' W 122°44'2 3.2
2018-May-15 17:48N 48°30' W 122°41'2 8.2
2018-May-15 17:30N 48°32' W 122°44'613.0
2018-May-15 17:00N 48°34' W 122°53'2 4.4
2018-May-15 16:30N 48°35' W 122°56'1 1.8
2018-May-15 16:00N 48°36' W 122°57'3 6.8
2018-May-15 15:30N 48°34' W 122°52'611.7
2018-May-15 15:00N 48°32' W 122°44'3 4.7
2018-May-15 14:28N 48°30' W 122°41'510.0
2018-May-15 14:00N 48°32' W 122°47'5 9.2
2018-May-15 13:30N 48°34' W 122°53'4 7.2
2018-May-15 13:00N 48°32' W 122°58'2 4.2
2018-May-15 12:30N 48°32' W 123°01'611.6
2018-May-15 12:00N 48°35' W 122°53'612.7
2018-May-15 11:30N 48°31' W 122°45'3 5.4
2018-May-15 10:59N 48°30' W 122°41'0 0.0
2018-May-15 08:51N 48°30' W 122°41'0 0.0
2018-May-15 08:29N 48°30' W 122°41'0 0.0
2018-May-15 07:59N 48°30' W 122°41'0 0.0
2018-May-15 07:30N 48°30' W 122°41'0 0.0
2018-May-15 07:00N 48°30' W 122°41'0 0.0
2018-May-15 06:26N 48°30' W 122°41'3 7.5
2018-May-15 06:00N 48°31' W 122°45'612.5
2018-May-15 05:30N 48°34' W 122°54'510.3
2018-May-15 05:00N 48°32' W 123°01'3 6.8
2018-May-15 04:30N 48°33' W 122°56'3 6.7
2018-May-15 04:00N 48°34' W 122°51'712.9
2018-May-15 03:30N 48°31' W 122°42'1 2.0
2018-May-15 02:58N 48°30' W 122°41'511.2
2018-May-15 02:30N 48°32' W 122°48'4 8.0
2018-May-15 02:00N 48°34' W 122°53'5 9.7
2018-May-15 01:30N 48°33' W 122°60'1 1.6
2018-May-15 01:00N 48°32' W 123°01'  
Track history (hours):
 
Tides and Currents Weather Stations Pressure Air Temp Water Temp Dewpoint Dewpoint Depression Visibility Wind Speed Wind Dir Waves Ship Positions

Yakima

Owner: WASHINGTON, STATE OF; Dept. of Transportation, OLYMPIA, WA. More information available from US FCC via Universal Licensing System and Coast Guard Vessel Documentation Center.

Last reported at 2018-May-25 01:00 UTC. Time now 2018-May-25 01:23 UTC.
Position N 48°32' W 122°45'.

Length 117 m; draft 5.6 m.

Type: Passenger vessel. MMSI: 366772750.

Date/timePositionNaut miles runAvg speedWind from/ knotsBaromVisibWave heightAir tempDewpointWater temp
2018-May-25 01:00N 48°32' W 122°45'3 5.2
2018-May-25 00:26N 48°30' W 122°41'510.9
2018-May-25 00:00N 48°32' W 122°48'713.1
2018-May-24 23:30N 48°35' W 122°56'1 2.1
2018-May-24 23:00N 48°35' W 122°54'612.5
2018-May-24 22:30N 48°32' W 122°46'4 5.2
2018-May-24 21:44N 48°30' W 122°41'2 9.6
2018-May-24 21:30N 48°32' W 122°44'612.1
2018-May-24 21:01N 48°34' W 122°52'4 6.7
2018-May-24 20:28N 48°36' W 122°57'1 1.9
2018-May-24 19:59N 48°35' W 122°56'1 2.7
2018-May-24 19:30N 48°35' W 122°54'3 6.1
2018-May-24 19:00N 48°35' W 122°49'612.1
2018-May-24 18:30N 48°32' W 122°42'1 2.0
2018-May-24 17:51N 48°30' W 122°41'3 9.7
2018-May-24 17:30N 48°32' W 122°45'611.4
2018-May-24 17:00N 48°34' W 122°53'2 4.1
2018-May-24 16:31N 48°35' W 122°56'1 1.8
2018-May-24 16:00N 48°36' W 122°57'510.6
2018-May-24 15:30N 48°33' W 122°50'612.5
2018-May-24 15:00N 48°31' W 122°41'1 1.2
2018-May-24 14:30N 48°31' W 122°40'612.2
2018-May-24 14:00N 48°32' W 122°50'3 6.2
2018-May-24 13:30N 48°34' W 122°53'9 2.0
2018-May-24 08:59N 48°30' W 122°41'0 0.0
2018-May-24 08:29N 48°30' W 122°41'0 0.0
2018-May-24 07:59N 48°30' W 122°41'0 0.0
2018-May-24 07:28N 48°30' W 122°41'0 0.0
2018-May-24 06:53N 48°30' W 122°41'410.5
2018-May-24 06:30N 48°32' W 122°46'611.4
2018-May-24 06:01N 48°34' W 122°54'5 9.7
2018-May-24 05:30N 48°32' W 123°01'4 7.8
2018-May-24 05:01N 48°33' W 122°55'2 4.8
2018-May-24 04:30N 48°34' W 122°52'712.6
2018-May-24 03:57N 48°32' W 122°42'1 3.2
2018-May-24 03:30N 48°30' W 122°41'5 9.3
2018-May-24 02:57N 48°32' W 122°48'4 7.9
2018-May-24 02:26N 48°34' W 122°53'0 0.8
2018-May-24 02:00N 48°35' W 122°53'611.0
2018-May-24 01:30N 48°32' W 123°01'1 1.4
2018-May-24 01:00N 48°33' W 123°00'510.5
2018-May-24 00:31N 48°34' W 122°53'3 6.8
2018-May-24 00:00N 48°32' W 122°49'6 4.4
2018-May-23 22:41N 48°30' W 122°41'0 0.0
2018-May-23 22:25N 48°30' W 122°41'0 0.0
2018-May-23 21:59N 48°30' W 122°41'0 0.2
2018-May-23 21:30N 48°31' W 122°41'611.1
2018-May-23 21:00N 48°32' W 122°49'611.3
2018-May-23 20:30N 48°35' W 122°56'1 1.5
2018-May-23 19:54N 48°36' W 122°57'2 4.3
2018-May-23 19:30N 48°35' W 122°54'4 7.4
2018-May-23 19:00N 48°33' W 122°50'612.8
2018-May-23 18:30N 48°31' W 122°41'0 0.9
2018-May-23 17:58N 48°31' W 122°40'510.9
2018-May-23 17:30N 48°32' W 122°48'4 8.5
2018-May-23 17:01N 48°34' W 122°53'3 5.0
2018-May-23 16:29N 48°36' W 122°56'0 0.6
2018-May-23 15:58N 48°36' W 122°57'510.8
2018-May-23 15:30N 48°33' W 122°50'612.0
2018-May-23 15:01N 48°31' W 122°42'1 2.1
2018-May-23 14:30N 48°31' W 122°41'611.4
2018-May-23 14:00N 48°32' W 122°49'4 7.3
2018-May-23 13:31N 48°34' W 122°53'5 9.3
2018-May-23 13:00N 48°33' W 122°60'1 1.7
2018-May-23 12:30N 48°32' W 123°01'611.3
2018-May-23 12:00N 48°35' W 122°53'612.1
2018-May-23 11:30N 48°31' W 122°45'3 6.1
2018-May-23 11:00N 48°30' W 122°41'0 0.0
2018-May-23 10:30N 48°30' W 122°41'0 0.0
2018-May-23 09:59N 48°30' W 122°41'0 0.0
2018-May-23 09:30N 48°30' W 122°41'0 0.0
2018-May-23 09:00N 48°30' W 122°41'0 0.0
2018-May-23 08:30N 48°30' W 122°41'0 0.0
2018-May-23 07:59N 48°30' W 122°41'0 0.0
2018-May-23 07:30N 48°30' W 122°41'0 0.0
2018-May-23 07:01N 48°30' W 122°41'0 0.0
2018-May-23 06:30N 48°30' W 122°41'4 8.6
2018-May-23 06:00N 48°32' W 122°47'611.0
2018-May-23 05:30N 48°34' W 122°54'5 9.3
2018-May-23 05:00N 48°32' W 123°01'4 8.4
2018-May-23 04:30N 48°34' W 122°55'3 6.1
2018-May-23 04:00N 48°33' W 122°50'712.9
2018-May-23 03:30N 48°31' W 122°41'1 1.0
2018-May-23 02:58N 48°30' W 122°41'510.7
2018-May-23 02:30N 48°32' W 122°48'4 8.4
2018-May-23 02:00N 48°34' W 122°53'5 9.7
2018-May-23 01:30N 48°33' W 122°60'0 0.9
2018-May-23 01:00N 48°33' W 123°01'511.1
2018-May-23 00:30N 48°34' W 122°53'4 8.0
2018-May-23 00:00N 48°32' W 122°48'510.6
2018-May-22 23:30N 48°30' W 122°41'0 0.3
2018-May-22 22:58N 48°30' W 122°40'0 0.2
2018-May-22 22:12N 48°30' W 122°41'0 0.2
2018-May-22 21:59N 48°30' W 122°41'1 2.3
2018-May-22 21:30N 48°31' W 122°42'612.7
2018-May-22 21:01N 48°33' W 122°51'5 9.0
2018-May-22 20:30N 48°36' W 122°56'0 0.6
2018-May-22 20:00N 48°36' W 122°57'3 5.9
2018-May-22 19:30N 48°34' W 122°53'4 8.2
2018-May-22 19:00N 48°32' W 122°48'5 7.8
2018-May-22 18:21N 48°30' W 122°41'0 0.0
2018-May-22 18:00N 48°30' W 122°41'510.8
2018-May-22 17:30N 48°32' W 122°48'4 7.9
2018-May-22 17:00N 48°34' W 122°53'3 5.3
2018-May-22 16:30N 48°36' W 122°57'0 0.3
2018-May-22 16:00N 48°36' W 122°57'612.6
2018-May-22 15:30N 48°32' W 122°49'611.5
2018-May-22 15:00N 48°31' W 122°41'1 1.1
2018-May-22 14:30N 48°31' W 122°40'612.8
2018-May-22 14:00N 48°32' W 122°50'3 6.0
2018-May-22 13:30N 48°34' W 122°53'5 9.5
2018-May-22 13:00N 48°33' W 122°60'1 1.2
2018-May-22 12:31N 48°33' W 123°01'611.5
2018-May-22 12:00N 48°34' W 122°52'612.1
2018-May-22 11:30N 48°32' W 122°44'3 4.4
2018-May-22 10:55N 48°30' W 122°41'0 0.0
2018-May-22 10:30N 48°30' W 122°41'0 0.0
2018-May-22 10:00N 48°30' W 122°41'0 0.0
2018-May-22 09:30N 48°30' W 122°41'0 0.0
2018-May-22 09:00N 48°30' W 122°41'0 0.0
2018-May-22 08:30N 48°30' W 122°41'0 0.0
2018-May-22 07:59N 48°30' W 122°41'0 0.0
2018-May-22 07:30N 48°30' W 122°41'0 0.0
2018-May-22 07:00N 48°30' W 122°41'0 0.0
2018-May-22 06:29N 48°30' W 122°41'4 7.9
2018-May-22 06:00N 48°32' W 122°46'611.8
2018-May-22 05:30N 48°34' W 122°54'5 9.7
2018-May-22 05:00N 48°32' W 123°01'4 7.9
2018-May-22 04:30N 48°33' W 122°55'4 7.3
2018-May-22 04:00N 48°33' W 122°50'612.0
2018-May-22 03:30N 48°31' W 122°41'0 1.0
2018-May-22 03:00N 48°31' W 122°41'611.9
2018-May-22 02:30N 48°32' W 122°49'4 7.6
2018-May-22 02:00N 48°35' W 122°53'510.8
2018-May-22 01:30N 48°32' W 123°01'1 2.2
2018-May-22 01:01N 48°33' W 122°59'4 8.9
2018-May-22 00:31N 48°34' W 122°53'5 9.3
2018-May-21 23:59N 48°32' W 122°47'4 8.6
2018-May-21 23:29N 48°30' W 122°41'0 0.3
2018-May-21 23:00N 48°31' W 122°40'0 0.2
2018-May-21 22:06N 48°30' W 122°41'0 0.1
2018-May-21 21:59N 48°30' W 122°41'1 1.2
2018-May-21 21:30N 48°31' W 122°40'612.7
2018-May-21 21:01N 48°32' W 122°50'510.1
2018-May-21 20:30N 48°35' W 122°56'1 1.7
2018-May-21 19:59N 48°36' W 122°57'0 1.0
2018-May-21 19:30N 48°35' W 122°56'3 5.1
2018-May-21 19:00N 48°34' W 122°53'611.8
2018-May-21 18:30N 48°32' W 122°45'3 3.8
2018-May-21 17:42N 48°30' W 122°41'1 7.3
2018-May-21 17:30N 48°31' W 122°42'612.6
2018-May-21 17:00N 48°34' W 122°51'3 6.9
2018-May-21 16:30N 48°35' W 122°56'1 1.4
2018-May-21 15:56N 48°36' W 122°57'4 9.4
2018-May-21 15:30N 48°34' W 122°51'612.4
2018-May-21 15:00N 48°31' W 122°42'1 3.1
2018-May-21 14:30N 48°30' W 122°41'5 9.7
2018-May-21 14:00N 48°32' W 122°48'4 8.6
2018-May-21 13:30N 48°34' W 122°53'4 8.2
2018-May-21 13:00N 48°32' W 122°58'2 3.2
2018-May-21 12:30N 48°32' W 123°01'611.1
2018-May-21 12:01N 48°35' W 122°53'612.2
2018-May-21 11:30N 48°32' W 122°45'3 4.9
2018-May-21 10:52N 48°30' W 122°41'0 0.0
2018-May-21 10:00N 48°30' W 122°41'0 0.0
2018-May-21 09:25N 48°30' W 122°41'0 0.0
2018-May-21 09:00N 48°30' W 122°41'0 0.0
2018-May-21 08:30N 48°30' W 122°41'0 0.0
2018-May-21 07:59N 48°30' W 122°41'0 0.0
2018-May-21 07:30N 48°30' W 122°41'4 8.4
2018-May-21 07:00N 48°32' W 122°47'511.2
2018-May-21 06:30N 48°34' W 122°54'5 9.2
2018-May-21 06:00N 48°32' W 123°01'4 8.2
2018-May-21 05:30N 48°33' W 122°55'3 5.6
2018-May-21 05:01N 48°33' W 122°51'612.6
2018-May-21 04:30N 48°31' W 122°42'1 2.0
2018-May-21 04:00N 48°31' W 122°40'612.6
2018-May-21 03:30N 48°32' W 122°50'3 6.4
2018-May-21 03:00N 48°34' W 122°53'611.2
2018-May-21 02:30N 48°32' W 123°01'0 0.0
2018-May-21 02:00N 48°32' W 123°01'611.2
2018-May-21 01:30N 48°34' W 122°53'4 7.7
2018-May-21 01:01N 48°32' W 122°49'5 9.9
2018-May-21 00:28N 48°30' W 122°41'0 0.8
2018-May-21 00:00N 48°31' W 122°40'612.8
2018-May-20 23:30N 48°32' W 122°50'6 9.7
2018-May-20 22:54N 48°36' W 122°57'0 0.1
2018-May-20 22:30N 48°36' W 122°57'611.8
2018-May-20 22:00N 48°32' W 122°49'612.1
2018-May-20 21:30N 48°31' W 122°40'1 1.4
2018-May-20 21:00N 48°31' W 122°41'612.7
2018-May-20 20:30N 48°33' W 122°50'4 9.0
2018-May-20 20:01N 48°35' W 122°56'1 1.4
2018-May-20 19:30N 48°36' W 122°57'2 3.7
2018-May-20 19:00N 48°35' W 122°54'4 7.6
2018-May-20 18:30N 48°32' W 122°50'612.2
2018-May-20 17:58N 48°30' W 122°41'0 0.2
2018-May-20 17:30N 48°31' W 122°41'611.1
2018-May-20 17:00N 48°32' W 122°49'4 7.7
2018-May-20 16:30N 48°34' W 122°53'3 5.6
2018-May-20 16:00N 48°36' W 122°57'2 4.0
2018-May-20 15:30N 48°35' W 122°54'612.8
2018-May-20 15:01N 48°32' W 122°46'4 6.3
2018-May-20 14:27N 48°30' W 122°41'4 9.8
2018-May-20 14:00N 48°32' W 122°47'5 9.5
2018-May-20 13:30N 48°34' W 122°53'4 8.0
2018-May-20 13:00N 48°32' W 122°59'1 2.6
2018-May-20 12:31N 48°33' W 123°00'611.9
2018-May-20 12:00N 48°34' W 122°52'612.5
2018-May-20 11:30N 48°31' W 122°43'2 4.0
2018-May-20 11:01N 48°30' W 122°41'0 0.0
2018-May-20 10:30N 48°30' W 122°41'0 0.0
2018-May-20 09:03N 48°30' W 122°41'0 0.0
2018-May-20 08:57N 48°30' W 122°41'0 0.0
2018-May-20 07:12N 48°30' W 122°41'0 0.9
2018-May-20 07:00N 48°31' W 122°41'612.2
2018-May-20 06:29N 48°32' W 122°50'4 9.2
2018-May-20 06:01N 48°33' W 122°56'3 5.7
2018-May-20 05:30N 48°32' W 123°01'510.9
2018-May-20 05:00N 48°34' W 122°53'4 7.7
2018-May-20 04:30N 48°32' W 122°49'510.9
2018-May-20 04:01N 48°30' W 122°41'3 5.5
2018-May-20 03:30N 48°32' W 122°44'611.6
2018-May-20 03:00N 48°34' W 122°52'2 4.9
2018-May-20 02:30N 48°33' W 122°56'4 7.2
2018-May-20 02:00N 48°32' W 123°01'2 4.4
2018-May-20 01:30N 48°33' W 122°58'4 7.2
2018-May-20 01:01N 48°34' W 122°53'612.2
2018-May-20 00:30N 48°32' W 122°44'3 4.3
2018-May-19 23:51N 48°30' W 122°41'410.1
2018-May-19 23:30N 48°31' W 122°46'612.6
2018-May-19 23:00N 48°35' W 122°53'2 3.9
2018-May-19 22:30N 48°36' W 122°56'613.0
2018-May-19 22:00N 48°32' W 122°48'510.4
2018-May-19 21:30N 48°30' W 122°41'1 1.9
2018-May-19 21:00N 48°31' W 122°41'713.2
2018-May-19 20:30N 48°33' W 122°51'5 9.0
2018-May-19 20:00N 48°36' W 122°56'0 0.7
2018-May-19 19:30N 48°36' W 122°57'3 5.8
2018-May-19 19:00N 48°34' W 122°53'510.2
2018-May-19 18:30N 48°32' W 122°46'4 5.3
2018-May-19 17:45N 48°30' W 122°41'2 7.3
2018-May-19 17:30N 48°31' W 122°43'612.8
2018-May-19 17:00N 48°34' W 122°52'3 6.0
2018-May-19 16:30N 48°35' W 122°56'1 1.8
2018-May-19 16:00N 48°36' W 122°57'3 6.4
2018-May-19 15:30N 48°35' W 122°52'612.2
2018-May-19 15:00N 48°32' W 122°44'3 4.4
2018-May-19 14:26N 48°30' W 122°41'410.5
2018-May-19 14:00N 48°32' W 122°47'5 9.3
2018-May-19 13:30N 48°34' W 122°53'4 8.2
2018-May-19 13:00N 48°32' W 122°58'1 3.0
2018-May-19 12:30N 48°32' W 123°01'611.7
2018-May-19 12:01N 48°35' W 122°53'612.8
2018-May-19 11:30N 48°31' W 122°44'2 4.5
2018-May-19 10:58N 48°30' W 122°41'0 0.0
2018-May-19 10:30N 48°30' W 122°41'0 0.0
2018-May-19 10:00N 48°30' W 122°41'0 0.0
2018-May-19 09:30N 48°30' W 122°41'0 0.0
2018-May-19 09:00N 48°30' W 122°41'0 0.0
2018-May-19 08:31N 48°30' W 122°41'0 0.5
2018-May-19 08:00N 48°31' W 122°40'612.3
2018-May-19 07:30N 48°32' W 122°49'5 9.2
2018-May-19 07:00N 48°33' W 122°56'3 5.9
2018-May-19 06:31N 48°32' W 123°01'510.7
2018-May-19 06:01N 48°34' W 122°54'3 5.3
2018-May-19 05:30N 48°33' W 122°50'713.1
2018-May-19 05:00N 48°31' W 122°41'0 0.9
2018-May-19 04:29N 48°30' W 122°41'510.1
2018-May-19 04:00N 48°32' W 122°48'4 8.6
2018-May-19 03:31N 48°34' W 122°53'510.4
2018-May-19 03:00N 48°33' W 123°00'0 0.9
2018-May-19 02:30N 48°32' W 123°01'611.4
2018-May-19 02:01N 48°34' W 122°53'3 5.8
2018-May-19 01:31N 48°32' W 122°50'612.2
2018-May-19 01:00N 48°31' W 122°40'0 0.2
2018-May-19 00:29N 48°31' W 122°40'612.2
2018-May-19 00:00N 48°32' W 122°49'612.2
2018-May-18 23:30N 48°36' W 122°56'0 0.6
2018-May-18 23:00N 48°36' W 122°57'612.7
2018-May-18 22:30N 48°32' W 122°49'611.2
2018-May-18 22:00N 48°30' W 122°41'0 0.6
2018-May-18 21:31N 48°31' W 122°40'612.2
2018-May-18 21:00N 48°32' W 122°49'510.1
2018-May-18 20:30N 48°35' W 122°56'1 1.8
2018-May-18 20:00N 48°36' W 122°57'0 0.4
2018-May-18 19:30N 48°36' W 122°56'3 6.7
2018-May-18 19:01N 48°34' W 122°52'611.3
2018-May-18 18:30N 48°31' W 122°44'3 4.9
2018-May-18 17:58N 48°30' W 122°41'2 4.0
2018-May-18 17:30N 48°31' W 122°43'613.0
2018-May-18 17:00N 48°34' W 122°52'3 5.5
2018-May-18 16:30N 48°35' W 122°56'1 1.6
2018-May-18 15:58N 48°36' W 122°57'4 7.8
2018-May-18 15:30N 48°34' W 122°52'611.9
2018-May-18 15:00N 48°32' W 122°44'2 3.9
2018-May-18 14:26N 48°30' W 122°41'511.0
2018-May-18 14:00N 48°32' W 122°47'5 9.0
2018-May-18 13:30N 48°34' W 122°53'4 8.6
2018-May-18 13:00N 48°32' W 122°59'1 2.4
2018-May-18 12:31N 48°32' W 123°01'611.8
2018-May-18 12:00N 48°35' W 122°52'612.6
2018-May-18 11:30N 48°31' W 122°44'3 5.0
2018-May-18 11:00N 48°30' W 122°41'0 0.1
2018-May-18 10:28N 48°30' W 122°41'0 0.0
2018-May-18 10:00N 48°30' W 122°41'0 0.0
2018-May-18 09:30N 48°30' W 122°41'0 0.0
2018-May-18 09:00N 48°30' W 122°41'0 0.0
2018-May-18 08:30N 48°30' W 122°41'0 0.0
2018-May-18 07:57N 48°30' W 122°41'0 0.9
2018-May-18 07:30N 48°31' W 122°40'612.7
2018-May-18 07:00N 48°32' W 122°50'4 9.0
2018-May-18 06:30N 48°32' W 122°56'3 5.5
2018-May-18 06:00N 48°32' W 123°01'611.1
2018-May-18 05:30N 48°34' W 122°53'3 6.6
2018-May-18 05:00N 48°32' W 122°49'6 6.9
2018-May-18 04:09N 48°30' W 122°41'1 8.4
2018-May-18 04:00N 48°31' W 122°42'612.9
2018-May-18 03:30N 48°33' W 122°51'3 5.2
2018-May-18 03:00N 48°33' W 122°55'4 8.2
2018-May-18 02:30N 48°32' W 123°01'3 5.8
2018-May-18 02:00N 48°33' W 122°57'3 6.1
2018-May-18 01:30N 48°34' W 122°53'612.3
2018-May-18 01:00N 48°32' W 122°44'3 4.2
2018-May-18 00:20N 48°30' W 122°41'410.5
2018-May-18 00:00N 48°31' W 122°46'510.8
2018-May-17 23:31N 48°34' W 122°52'3 6.1
2018-May-17 22:59N 48°36' W 122°57'612.9
2018-May-17 22:30N 48°32' W 122°49'611.9
2018-May-17 22:01N 48°30' W 122°41'0 0.1
2018-May-17 21:30N 48°30' W 122°41'510.6
2018-May-17 21:00N 48°32' W 122°48'612.1
2018-May-17 20:30N 48°35' W 122°56'1 1.6
2018-May-17 19:59N 48°36' W 122°57'1 1.7
2018-May-17 19:30N 48°35' W 122°55'3 5.4
2018-May-17 19:00N 48°34' W 122°52'510.8
2018-May-17 18:30N 48°31' W 122°45'3 5.8
2018-May-17 18:00N 48°30' W 122°41'2 3.2
2018-May-17 17:30N 48°31' W 122°43'713.3
2018-May-17 17:00N 48°34' W 122°52'3 5.9
2018-May-17 16:30N 48°35' W 122°56'1 1.5
2018-May-17 15:59N 48°36' W 122°57'3 6.9
2018-May-17 15:30N 48°34' W 122°52'612.0
2018-May-17 15:00N 48°31' W 122°44'3 4.7
2018-May-17 14:28N 48°30' W 122°41'511.0
2018-May-17 14:00N 48°32' W 122°48'4 8.4
2018-May-17 13:31N 48°34' W 122°53'4 7.7
2018-May-17 13:00N 48°32' W 122°58'2 3.4
2018-May-17 12:30N 48°32' W 123°01'611.8
2018-May-17 12:00N 48°34' W 122°52'612.5
2018-May-17 11:31N 48°31' W 122°44'2 0.8
2018-May-17 08:45N 48°30' W 122°41'0 0.0
2018-May-17 08:15N 48°30' W 122°41'0 0.0
2018-May-17 07:53N 48°30' W 122°41'0 0.0
2018-May-17 06:32N 48°30' W 122°41'0 0.2
2018-May-17 06:30N 48°30' W 122°41'4 8.6
2018-May-17 06:00N 48°32' W 122°47'611.2
2018-May-17 05:30N 48°34' W 122°55'4 8.2
2018-May-17 04:59N 48°32' W 123°01'4 9.1
2018-May-17 04:30N 48°34' W 122°55'3 5.1
2018-May-17 04:01N 48°33' W 122°51'612.5
2018-May-17 03:30N 48°31' W 122°42'1 1.9
2018-May-17 02:57N 48°30' W 122°41'511.2
2018-May-17 02:30N 48°32' W 122°48'4 8.3
2018-May-17 02:00N 48°35' W 122°53'511.0
2018-May-17 01:31N 48°33' W 123°00'0 0.6
2018-May-17 01:00N 48°32' W 123°01'611.2
2018-May-17 00:30N 48°34' W 122°53'3 6.6
2018-May-17 00:00N 48°32' W 122°49'6 2.9
2018-May-16 21:59N 48°30' W 122°41'0 0.2
2018-May-16 21:30N 48°31' W 122°41'611.0
2018-May-16 21:00N 48°32' W 122°49'611.7
2018-May-16 20:30N 48°35' W 122°56'1 1.2
2018-May-16 19:45N 48°36' W 122°57'0 0.2
2018-May-16 19:30N 48°36' W 122°57'3 5.9
2018-May-16 19:00N 48°34' W 122°53'611.2
2018-May-16 18:30N 48°31' W 122°45'3 6.8
2018-May-16 18:00N 48°30' W 122°41'1 2.4
2018-May-16 17:30N 48°31' W 122°42'612.6
2018-May-16 17:00N 48°33' W 122°51'4 7.6
2018-May-16 16:30N 48°35' W 122°55'1 1.7
2018-May-16 15:52N 48°36' W 122°57'3 9.8
2018-May-16 15:30N 48°34' W 122°52'612.0
2018-May-16 15:00N 48°32' W 122°44'2 4.4
2018-May-16 14:27N 48°30' W 122°41'4 9.8
2018-May-16 14:00N 48°32' W 122°47'5 9.4
2018-May-16 13:30N 48°34' W 122°53'4 8.3
2018-May-16 13:00N 48°32' W 122°59'1 2.9
2018-May-16 12:30N 48°32' W 123°01'611.7
2018-May-16 12:01N 48°34' W 122°53'712.7
2018-May-16 11:30N 48°32' W 122°44'2 5.1
2018-May-16 11:01N 48°30' W 122°41'0 0.0
2018-May-16 10:30N 48°30' W 122°41'0 0.0
2018-May-16 10:00N 48°30' W 122°41'0 0.0
2018-May-16 09:30N 48°30' W 122°41'0 0.0
2018-May-16 09:00N 48°30' W 122°41'0 0.0
2018-May-16 08:30N 48°30' W 122°41'0 0.0
2018-May-16 08:00N 48°30' W 122°41'0 0.0
2018-May-16 07:30N 48°30' W 122°41'0 0.0
2018-May-16 07:00N 48°30' W 122°41'0 0.0
2018-May-16 06:30N 48°30' W 122°41'3 6.9
2018-May-16 06:00N 48°32' W 122°45'612.3
2018-May-16 05:30N 48°34' W 122°54'510.2
2018-May-16 05:00N 48°32' W 123°01'3 6.8
2018-May-16 04:30N 48°33' W 122°56'3 6.8
2018-May-16 04:00N 48°33' W 122°51'612.7
2018-May-16 03:30N 48°31' W 122°42'1 1.0
2018-May-16 03:00N 48°31' W 122°41'612.7
2018-May-16 02:30N 48°33' W 122°50'3 5.0
2018-May-16 02:00N 48°35' W 122°53'5 9.7
2018-May-16 01:30N 48°33' W 122°60'1 1.9
2018-May-16 01:00N 48°32' W 123°01'611.4
2018-May-16 00:30N 48°34' W 122°53'4 7.4
2018-May-16 00:00N 48°32' W 122°49'611.2
2018-May-15 23:30N 48°30' W 122°41'0 0.2
2018-May-15 23:00N 48°31' W 122°41'0 0.2
2018-May-15 22:30N 48°30' W 122°41'0 0.0
2018-May-15 22:00N 48°30' W 122°41'0 0.1
2018-May-15 21:30N 48°30' W 122°41'2 4.8
2018-May-15 21:00N 48°32' W 122°44'611.9
2018-May-15 20:31N 48°34' W 122°52'4 6.8
2018-May-15 19:58N 48°36' W 122°57'0 0.5
2018-May-15 19:30N 48°36' W 122°56'4 7.2
2018-May-15 19:00N 48°34' W 122°52'611.7
2018-May-15 18:31N 48°32' W 122°44'2 3.2
2018-May-15 17:48N 48°30' W 122°41'2 8.2
2018-May-15 17:30N 48°32' W 122°44'613.0
2018-May-15 17:00N 48°34' W 122°53'2 4.4
2018-May-15 16:30N 48°35' W 122°56'1 1.8
2018-May-15 16:00N 48°36' W 122°57'3 6.8
2018-May-15 15:30N 48°34' W 122°52'611.7
2018-May-15 15:00N 48°32' W 122°44'3 4.7
2018-May-15 14:28N 48°30' W 122°41'510.0
2018-May-15 14:00N 48°32' W 122°47'5 9.2
2018-May-15 13:30N 48°34' W 122°53'4 7.2
2018-May-15 13:00N 48°32' W 122°58'2 4.2
2018-May-15 12:30N 48°32' W 123°01'611.6
2018-May-15 12:00N 48°35' W 122°53'612.7
2018-May-15 11:30N 48°31' W 122°45'3 5.4
2018-May-15 10:59N 48°30' W 122°41'0 0.0
2018-May-15 08:51N 48°30' W 122°41'0 0.0
2018-May-15 08:29N 48°30' W 122°41'0 0.0
2018-May-15 07:59N 48°30' W 122°41'0 0.0
2018-May-15 07:30N 48°30' W 122°41'0 0.0
2018-May-15 07:00N 48°30' W 122°41'0 0.0
2018-May-15 06:26N 48°30' W 122°41'3 7.5
2018-May-15 06:00N 48°31' W 122°45'612.5
2018-May-15 05:30N 48°34' W 122°54'510.3
2018-May-15 05:00N 48°32' W 123°01'3 6.8
2018-May-15 04:30N 48°33' W 122°56'3 6.7
2018-May-15 04:00N 48°34' W 122°51'712.9
2018-May-15 03:30N 48°31' W 122°42'1 2.0
2018-May-15 02:58N 48°30' W 122°41'511.2
2018-May-15 02:30N 48°32' W 122°48'4 8.0
2018-May-15 02:00N 48°34' W 122°53'5 9.7
2018-May-15 01:30N 48°33' W 122°60'1 1.6
2018-May-15 01:00N 48°32' W 123°01'  

Dump ship's entire track history